Time;durP1;ratioP1;P1;durP2;ratioP2;P2;SDS_P1;SDS_P2;PMS_P1;PMS_P2;Temp;Humidity;BMP_temperature;BMP_pressure;BME280_temperature;BME280_humidity;BME280_pressure;Samples;Min_cycle;Max_cycle;Signal;HPM_P1;HPM_P2
2023/10/27 00:01:14;;;;;;;13.30;3.70;;;;;;;;;;5047215;28;20433;-74
2023/10/27 00:03:44;;;;;;;11.07;3.08;;;;;;;;;;5045928;28;20521;-73
2023/10/27 00:06:12;;;;;;;10.02;3.47;;;;;;;;;;5042508;28;20439;-74
2023/10/27 00:08:39;;;;;;;12.20;3.77;;;;;;;;;;5044028;28;20434;-74
2023/10/27 00:11:07;;;;;;;11.43;3.50;;;;;;;;;;5048103;28;20452;-74
2023/10/27 00:13:34;;;;;;;12.70;3.55;;;;;;;;;;5045058;28;20502;-74
2023/10/27 00:16:06;;;;;;;7.95;3.25;;;;;;;;;;5044323;28;20464;-74
2023/10/27 00:18:33;;;;;;;10.18;3.90;;;;;;;;;;5040210;28;20468;-74
2023/10/27 00:21:00;;;;;;;11.20;3.63;;;;;;;;;;5052098;28;20441;-74
2023/10/27 00:23:27;;;;;;;10.07;3.78;;;;;;;;;;5050465;28;20437;-74
2023/10/27 00:25:54;;;;;;;8.77;3.78;;;;;;;;;;5048393;28;20437;-74
2023/10/27 00:28:22;;;;;;;16.38;4.30;;;;;;;;;;5047452;28;20892;-74
2023/10/27 00:30:52;;;;;;;12.10;3.60;;;;;;;;;;5044006;28;20467;-74
2023/10/27 00:33:19;;;;;;;8.98;3.80;;;;;;;;;;5049324;28;21150;-74
2023/10/27 00:35:50;;;;;;;13.13;3.53;;;;;;;;;;5046143;28;20499;-74
2023/10/27 00:38:17;;;;;;;10.03;3.33;;;;;;;;;;5039603;28;20429;-74
2023/10/27 00:40:44;;;;;;;9.05;3.70;;;;;;;;;;5045287;28;20437;-73
2023/10/27 00:43:18;;;;;;;10.38;3.53;;;;;;;;;;5037875;28;20534;-74
2023/10/27 00:45:53;;;;;;;10.65;2.95;;;;;;;;;;5035185;28;20543;-73
2023/10/27 00:48:21;;;;;;;10.95;3.45;;;;;;;;;;5040467;28;20440;-73
2023/10/27 00:50:49;;;;;;;7.28;3.30;;;;;;;;;;5048421;28;20441;-73
2023/10/27 00:53:20;;;;;;;11.52;3.20;;;;;;;;;;5043950;28;20780;-73
2023/10/27 00:55:49;;;;;;;9.90;3.60;;;;;;;;;;5037867;28;20440;-74
2023/10/27 00:58:19;;;;;;;7.43;3.03;;;;;;;;;;5042034;28;20440;-73
2023/10/27 01:00:46;;;;;;;8.93;3.20;;;;;;;;;;5041797;28;20470;-74
2023/10/27 01:03:13;;;;;;;9.88;3.55;;;;;;;;;;5034967;28;20500;-74
2023/10/27 01:05:40;;;;;;;12.77;4.28;;;;;;;;;;5035141;28;20440;-74
2023/10/27 01:08:08;;;;;;;11.18;4.00;;;;;;;;;;5043972;28;20426;-74
2023/10/27 01:10:35;;;;;;;11.27;3.42;;;;;;;;;;5041225;28;20549;-73
2023/10/27 01:13:02;;;;;;;16.63;3.87;;;;;;;;;;5040774;28;20437;-73
2023/10/27 01:15:34;;;;;;;8.30;3.95;;;;;;;;;;5039757;28;20541;-74
2023/10/27 01:18:01;;;;;;;10.65;3.80;;;;;;;;;;5040060;28;20431;-73
2023/10/27 01:20:29;;;;;;;12.10;3.45;;;;;;;;;;5041379;28;20440;-72
2023/10/27 01:22:56;;;;;;;9.57;3.55;;;;;;;;;;5041520;28;20519;-73
2023/10/27 01:25:23;;;;;;;10.55;4.05;;;;;;;;;;5041800;28;20483;-73
2023/10/27 01:27:51;;;;;;;11.10;3.75;;;;;;;;;;5038048;28;20431;-73
2023/10/27 01:30:18;;;;;;;10.88;4.20;;;;;;;;;;5040468;28;20439;-73
2023/10/27 01:32:45;;;;;;;11.53;3.87;;;;;;;;;;5036333;28;20429;-74
2023/10/27 01:35:13;;;;;;;10.13;3.53;;;;;;;;;;5036715;28;20447;-73
2023/10/27 01:37:40;;;;;;;9.25;3.38;;;;;;;;;;5036398;28;20895;-74
2023/10/27 01:40:14;;;;;;;8.37;3.30;;;;;;;;;;5047329;28;20429;-74
2023/10/27 01:42:42;;;;;;;8.05;3.50;;;;;;;;;;5037174;28;20435;-74
2023/10/27 01:45:13;;;;;;;6.80;3.20;;;;;;;;;;5041503;28;20508;-74
2023/10/27 01:47:40;;;;;;;10.85;3.42;;;;;;;;;;5039685;28;20429;-74
2023/10/27 01:50:08;;;;;;;12.50;3.63;;;;;;;;;;5043630;28;20520;-74
2023/10/27 01:52:35;;;;;;;9.52;3.90;;;;;;;;;;5039971;28;20445;-73
2023/10/27 01:55:02;;;;;;;12.70;4.80;;;;;;;;;;5042053;28;20445;-74
2023/10/27 01:57:32;;;;;;;16.13;4.75;;;;;;;;;;5042730;28;20437;-74
2023/10/27 01:59:59;;;;;;;17.10;5.50;;;;;;;;;;5043574;28;20552;-73
2023/10/27 02:02:26;;;;;;;14.95;5.22;;;;;;;;;;5037237;28;20789;-73
2023/10/27 02:04:54;;;;;;;16.42;5.13;;;;;;;;;;5041961;28;20903;-74
2023/10/27 02:07:24;;;;;;;13.87;4.90;;;;;;;;;;5034724;28;20434;-74
2023/10/27 02:09:52;;;;;;;10.45;4.10;;;;;;;;;;5041378;28;20491;-73
2023/10/27 02:12:19;;;;;;;11.50;4.50;;;;;;;;;;5046591;28;20998;-73
2023/10/27 02:14:46;;;;;;;12.43;4.60;;;;;;;;;;5051115;28;20435;-74
2023/10/27 02:17:13;;;;;;;11.68;4.20;;;;;;;;;;5048526;28;20437;-73
2023/10/27 02:19:41;;;;;;;11.57;4.95;;;;;;;;;;5043597;28;20439;-74
2023/10/27 02:22:08;;;;;;;10.73;4.60;;;;;;;;;;5032657;28;20446;-73
2023/10/27 02:24:35;;;;;;;14.15;4.63;;;;;;;;;;5041515;28;20425;-73
2023/10/27 02:27:03;;;;;;;9.27;4.63;;;;;;;;;;5046773;28;20468;-74
2023/10/27 02:29:30;;;;;;;16.38;5.20;;;;;;;;;;5040503;28;20440;-73
2023/10/27 02:32:04;;;;;;;13.15;5.00;;;;;;;;;;5045071;28;20433;-74
2023/10/27 02:34:35;;;;;;;12.20;4.95;;;;;;;;;;5045696;28;20516;-73
2023/10/27 02:37:02;;;;;;;18.17;5.43;;;;;;;;;;5038365;28;20438;-73
2023/10/27 02:39:29;;;;;;;14.57;5.23;;;;;;;;;;5039849;28;20428;-72
2023/10/27 02:41:59;;;;;;;18.02;5.43;;;;;;;;;;5042562;28;20468;-73
2023/10/27 02:44:26;;;;;;;12.00;5.43;;;;;;;;;;5033159;28;20458;-74
2023/10/27 02:46:54;;;;;;;17.30;5.65;;;;;;;;;;5043110;28;20441;-73
2023/10/27 02:49:21;;;;;;;16.70;5.68;;;;;;;;;;5043020;28;20520;-73
2023/10/27 02:51:57;;;;;;;19.20;5.85;;;;;;;;;;5044942;28;20445;-73
2023/10/27 02:54:24;;;;;;;15.68;6.10;;;;;;;;;;5047648;28;20590;-73
2023/10/27 02:56:51;;;;;;;17.25;5.88;;;;;;;;;;5042635;28;20900;-73
2023/10/27 02:59:18;;;;;;;13.25;5.20;;;;;;;;;;5041813;28;20516;-73
2023/10/27 03:01:49;;;;;;;13.55;4.75;;;;;;;;;;5043169;28;20514;-73
2023/10/27 03:04:19;;;;;;;16.80;5.85;;;;;;;;;;5040864;28;20486;-73
2023/10/27 03:06:46;;;;;;;11.83;5.33;;;;;;;;;;5040672;28;20429;-73
2023/10/27 03:09:13;;;;;;;14.65;5.20;;;;;;;;;;5042963;28;20517;-73
2023/10/27 03:11:40;;;;;;;13.63;4.93;;;;;;;;;;5042474;28;20505;-73
2023/10/27 03:14:07;;;;;;;12.70;5.15;;;;;;;;;;5042714;28;20440;-73
2023/10/27 03:16:35;;;;;;;13.30;5.28;;;;;;;;;;5034797;28;20443;-72
2023/10/27 03:19:02;;;;;;;16.60;4.82;;;;;;;;;;5038569;28;20437;-73
2023/10/27 03:21:29;;;;;;;15.32;4.80;;;;;;;;;;5044514;28;20465;-73
2023/10/27 03:23:57;;;;;;;14.30;4.53;;;;;;;;;;5038863;28;20435;-73
2023/10/27 03:26:24;;;;;;;13.50;4.65;;;;;;;;;;5046096;28;20890;-73
2023/10/27 03:28:51;;;;;;;14.43;4.68;;;;;;;;;;5045014;28;20944;-72
2023/10/27 03:31:18;;;;;;;13.50;4.50;;;;;;;;;;5043127;28;20509;-72
2023/10/27 03:33:48;;;;;;;18.37;4.67;;;;;;;;;;5039101;28;20437;-73
2023/10/27 03:36:15;;;;;;;11.48;4.68;;;;;;;;;;5044096;28;20499;-72
2023/10/27 03:38:42;;;;;;;16.08;4.63;;;;;;;;;;5040981;28;20506;-73
2023/10/27 03:41:09;;;;;;;12.05;4.82;;;;;;;;;;5041552;28;20442;-73
2023/10/27 03:43:39;;;;;;;13.45;4.57;;;;;;;;;;5038509;28;20425;-73
2023/10/27 03:46:07;;;;;;;15.18;4.60;;;;;;;;;;5042341;28;21135;-73
2023/10/27 03:48:34;;;;;;;16.02;4.78;;;;;;;;;;5044271;28;20919;-72
2023/10/27 03:51:05;;;;;;;13.52;4.65;;;;;;;;;;5038217;28;20433;-72
2023/10/27 03:53:32;;;;;;;18.87;4.70;;;;;;;;;;5039709;28;20980;-72
2023/10/27 03:56:00;;;;;;;18.42;4.93;;;;;;;;;;5041020;28;20528;-72
2023/10/27 03:58:27;;;;;;;13.67;4.23;;;;;;;;;;5042734;28;20462;-71
2023/10/27 04:01:12;;;;;;;12.80;4.50;;;;;;;;;;5040255;28;20527;-72
2023/10/27 04:03:39;;;;;;;18.45;4.43;;;;;;;;;;5041370;28;20494;-73
2023/10/27 04:06:07;;;;;;;10.90;4.68;;;;;;;;;;5039537;28;20439;-73
2023/10/27 04:08:36;;;;;;;13.35;4.03;;;;;;;;;;5050295;28;20433;-73
2023/10/27 04:11:03;;;;;;;16.00;4.18;;;;;;;;;;5042712;28;20433;-73
2023/10/27 04:13:34;;;;;;;15.47;4.73;;;;;;;;;;5033692;28;20501;-73
2023/10/27 04:16:01;;;;;;;10.45;3.97;;;;;;;;;;5038628;28;20985;-73
2023/10/27 04:18:28;;;;;;;13.18;4.07;;;;;;;;;;5042228;28;20435;-73
2023/10/27 04:20:56;;;;;;;12.15;4.38;;;;;;;;;;5042761;28;20516;-74
2023/10/27 04:23:23;;;;;;;9.73;4.30;;;;;;;;;;5030718;28;20441;-74
2023/10/27 04:25:51;;;;;;;11.23;4.60;;;;;;;;;;5035236;28;21095;-74
2023/10/27 04:28:18;;;;;;;16.25;4.65;;;;;;;;;;5037975;28;20437;-73
2023/10/27 04:30:49;;;;;;;16.25;4.82;;;;;;;;;;5044616;28;20440;-74
2023/10/27 04:33:16;;;;;;;12.70;4.65;;;;;;;;;;5041909;28;21498;-74
2023/10/27 04:35:45;;;;;;;16.77;4.68;;;;;;;;;;5038699;28;20935;-74
2023/10/27 04:38:13;;;;;;;11.57;5.15;;;;;;;;;;5043799;28;20448;-74
2023/10/27 04:40:40;;;;;;;18.55;5.10;;;;;;;;;;5041361;28;20528;-74
2023/10/27 04:43:07;;;;;;;15.03;4.87;;;;;;;;;;5038331;28;20475;-74
2023/10/27 04:45:35;;;;;;;21.38;5.10;;;;;;;;;;5032950;28;20441;-74
2023/10/27 04:48:02;;;;;;;15.65;4.78;;;;;;;;;;5042448;28;20819;-74
2023/10/27 04:50:35;;;;;;;19.75;5.50;;;;;;;;;;5044506;28;20766;-74
2023/10/27 04:53:02;;;;;;;15.23;4.53;;;;;;;;;;5041793;28;20451;-74
2023/10/27 04:55:29;;;;;;;16.90;4.68;;;;;;;;;;5052408;28;20482;-74
2023/10/27 04:57:57;;;;;;;13.45;4.32;;;;;;;;;;5047424;28;20942;-74
2023/10/27 05:00:24;;;;;;;15.65;5.07;;;;;;;;;;5037882;28;20520;-74
2023/10/27 05:02:53;;;;;;;17.85;5.13;;;;;;;;;;5046143;28;21042;-74
2023/10/27 05:05:20;;;;;;;13.90;4.97;;;;;;;;;;5042032;28;20431;-74
2023/10/27 05:07:48;;;;;;;13.10;5.00;;;;;;;;;;5039589;28;20435;-74
2023/10/27 05:10:16;;;;;;;17.35;4.85;;;;;;;;;;5043350;28;20468;-74
2023/10/27 05:12:46;;;;;;;14.45;4.50;;;;;;;;;;5049990;28;20437;-74
2023/10/27 05:15:13;;;;;;;19.70;5.82;;;;;;;;;;5046337;28;20508;-74
2023/10/27 05:17:40;;;;;;;14.73;5.28;;;;;;;;;;5042378;28;20433;-74
2023/10/27 05:20:10;;;;;;;12.63;5.30;;;;;;;;;;5039788;28;20441;-74
2023/10/27 05:22:38;;;;;;;17.20;5.88;;;;;;;;;;5041311;28;20520;-74
2023/10/27 05:25:06;;;;;;;16.05;5.60;;;;;;;;;;5041650;28;20433;-74
2023/10/27 05:27:40;;;;;;;18.02;5.80;;;;;;;;;;5037020;28;20433;-73
2023/10/27 05:30:11;;;;;;;20.63;5.97;;;;;;;;;;5044892;28;20453;-73
2023/10/27 05:32:38;;;;;;;16.20;6.38;;;;;;;;;;5051605;28;20437;-74
2023/10/27 05:35:06;;;;;;;20.45;6.60;;;;;;;;;;5045345;28;20439;-74
2023/10/27 05:37:33;;;;;;;21.63;7.50;;;;;;;;;;5042638;28;20441;-74
2023/10/27 05:40:00;;;;;;;21.02;7.47;;;;;;;;;;5045593;28;20471;-74
2023/10/27 05:42:27;;;;;;;21.35;7.28;;;;;;;;;;5043043;28;20429;-75
2023/10/27 05:44:54;;;;;;;25.15;8.23;;;;;;;;;;5045554;28;20583;-74
2023/10/27 05:47:21;;;;;;;23.65;8.00;;;;;;;;;;5043868;28;20435;-73
2023/10/27 05:49:54;;;;;;;21.33;7.90;;;;;;;;;;5037561;28;20557;-74
2023/10/27 05:52:22;;;;;;;25.85;8.38;;;;;;;;;;5038989;28;20433;-75
2023/10/27 05:54:49;;;;;;;23.40;8.40;;;;;;;;;;5053942;28;20524;-75
2023/10/27 05:57:16;;;;;;;27.05;8.77;;;;;;;;;;5047282;28;20433;-75
2023/10/27 05:59:43;;;;;;;23.80;10.05;;;;;;;;;;5041596;28;20515;-75
2023/10/27 06:02:14;;;;;;;25.65;9.48;;;;;;;;;;5040176;28;20443;-74
2023/10/27 06:04:42;;;;;;;23.43;9.50;;;;;;;;;;5040676;28;20901;-75
2023/10/27 06:07:09;;;;;;;23.85;10.25;;;;;;;;;;5042097;28;20955;-74
2023/10/27 06:09:37;;;;;;;21.87;9.50;;;;;;;;;;5039594;28;20440;-75
2023/10/27 06:12:05;;;;;;;21.95;10.27;;;;;;;;;;5045439;28;20478;-74
2023/10/27 06:14:32;;;;;;;23.90;9.82;;;;;;;;;;5046978;28;20436;-74
2023/10/27 06:16:59;;;;;;;19.27;9.38;;;;;;;;;;5041125;28;20440;-74
2023/10/27 06:19:26;;;;;;;20.65;9.15;;;;;;;;;;5038850;28;20437;-74
2023/10/27 06:22:01;;;;;;;20.92;9.25;;;;;;;;;;5042856;28;20483;-75
2023/10/27 06:24:28;;;;;;;16.70;8.98;;;;;;;;;;5040263;28;20556;-74
2023/10/27 06:26:55;;;;;;;19.63;9.52;;;;;;;;;;5041930;28;20586;-74
2023/10/27 06:29:23;;;;;;;16.58;8.60;;;;;;;;;;5041356;28;20487;-75
2023/10/27 06:31:50;;;;;;;16.20;8.07;;;;;;;;;;5043710;28;20429;-75
2023/10/27 06:34:17;;;;;;;14.82;7.90;;;;;;;;;;5043863;28;20433;-74
2023/10/27 06:36:44;;;;;;;12.40;7.70;;;;;;;;;;5043194;28;20437;-74
2023/10/27 06:39:11;;;;;;;10.02;6.70;;;;;;;;;;5042945;28;20445;-74
2023/10/27 06:41:39;;;;;;;10.85;6.72;;;;;;;;;;5046642;28;20936;-74
2023/10/27 06:44:06;;;;;;;14.07;7.38;;;;;;;;;;5042726;28;20433;-74
2023/10/27 06:46:33;;;;;;;14.18;6.80;;;;;;;;;;5054846;28;20424;-74
2023/10/27 06:49:01;;;;;;;12.38;6.05;;;;;;;;;;5040909;28;20437;-75
2023/10/27 06:51:28;;;;;;;9.07;5.72;;;;;;;;;;5046365;28;20484;-74
2023/10/27 06:53:58;;;;;;;7.47;5.50;;;;;;;;;;5040153;28;20493;-74
2023/10/27 06:56:25;;;;;;;7.55;5.53;;;;;;;;;;5041891;28;20427;-75
2023/10/27 06:58:52;;;;;;;11.63;5.72;;;;;;;;;;5036191;28;20459;-74
2023/10/27 07:01:20;;;;;;;7.15;4.53;;;;;;;;;;5038254;28;20959;-74
2023/10/27 07:03:48;;;;;;;8.30;5.40;;;;;;;;;;5044429;28;20433;-74
2023/10/27 07:06:15;;;;;;;9.77;5.10;;;;;;;;;;5043351;28;20902;-74
2023/10/27 07:08:46;;;;;;;8.30;4.43;;;;;;;;;;5047432;28;20429;-74
2023/10/27 07:11:13;;;;;;;8.77;5.03;;;;;;;;;;5045263;28;20438;-74
2023/10/27 07:13:41;;;;;;;9.27;5.45;;;;;;;;;;5041529;28;20429;-74
2023/10/27 07:16:08;;;;;;;9.93;4.30;;;;;;;;;;5029649;28;20447;-74
2023/10/27 07:18:36;;;;;;;7.85;4.65;;;;;;;;;;5034468;28;20441;-74
2023/10/27 07:21:06;;;;;;;6.17;3.70;;;;;;;;;;5033534;28;20453;-73
2023/10/27 07:23:36;;;;;;;5.47;3.70;;;;;;;;;;5038469;28;20528;-74
2023/10/27 07:26:10;;;;;;;7.05;3.60;;;;;;;;;;5042338;28;20441;-73
2023/10/27 07:28:39;;;;;;;8.10;3.20;;;;;;;;;;5038702;28;20524;-73
2023/10/27 07:31:06;;;;;;;7.57;3.00;;;;;;;;;;5041330;28;20530;-73
2023/10/27 07:33:33;;;;;;;6.40;3.00;;;;;;;;;;5041358;28;20494;-72
2023/10/27 07:36:02;;;;;;;7.22;2.65;;;;;;;;;;5033611;28;20523;-73
2023/10/27 07:38:30;;;;;;;4.35;2.50;;;;;;;;;;5040752;28;20939;-72
2023/10/27 07:40:57;;;;;;;3.50;2.20;;;;;;;;;;5036645;28;20448;-72
2023/10/27 07:43:25;;;;;;;3.85;2.00;;;;;;;;;;5039932;28;20842;-76
2023/10/27 07:45:54;;;;;;;3.60;1.90;;;;;;;;;;5032637;28;20562;-72
2023/10/27 07:48:23;;;;;;;3.88;1.98;;;;;;;;;;5034362;28;21502;-72
2023/10/27 07:50:50;;;;;;;3.35;1.92;;;;;;;;;;5041458;28;20574;-72
2023/10/27 07:53:21;;;;;;;4.57;2.42;;;;;;;;;;5034284;28;20441;-73
2023/10/27 07:55:48;;;;;;;3.38;1.70;;;;;;;;;;5036287;28;20656;-73
2023/10/27 07:58:18;;;;;;;3.93;2.00;;;;;;;;;;5039922;28;20436;-72
2023/10/27 08:00:49;;;;;;;3.05;1.80;;;;;;;;;;5035090;28;20427;-73
2023/10/27 08:03:16;;;;;;;4.90;1.70;;;;;;;;;;5037838;28;20448;-73
2023/10/27 08:05:43;;;;;;;3.17;1.85;;;;;;;;;;5035394;28;20999;-73
2023/10/27 08:08:13;;;;;;;3.75;2.10;;;;;;;;;;5033443;28;20431;-73
2023/10/27 08:10:44;;;;;;;3.72;2.03;;;;;;;;;;5042992;28;20446;-73
2023/10/27 08:13:16;;;;;;;4.95;2.20;;;;;;;;;;5034229;28;20780;-73
2023/10/27 08:15:47;;;;;;;2.72;2.13;;;;;;;;;;5038975;28;20520;-73
2023/10/27 08:18:14;;;;;;;3.03;2.30;;;;;;;;;;5042555;28;20432;-73
2023/10/27 08:20:41;;;;;;;3.55;2.75;;;;;;;;;;5039180;28;20671;-73
2023/10/27 08:23:09;;;;;;;4.10;2.10;;;;;;;;;;5041262;28;20433;-73
2023/10/27 08:25:36;;;;;;;2.78;1.95;;;;;;;;;;5050898;28;20634;-73
2023/10/27 08:28:08;;;;;;;4.37;2.10;;;;;;;;;;5048655;28;21120;-74
2023/10/27 08:30:35;;;;;;;3.77;2.40;;;;;;;;;;5039431;28;20432;-74
2023/10/27 08:33:03;;;;;;;3.15;2.00;;;;;;;;;;5041721;28;20438;-74
2023/10/27 08:35:31;;;;;;;3.47;2.00;;;;;;;;;;5044851;28;20435;-74
2023/10/27 08:37:58;;;;;;;2.45;1.77;;;;;;;;;;5041109;28;20437;-74
2023/10/27 08:40:25;;;;;;;3.78;2.00;;;;;;;;;;5043548;28;20446;-74
2023/10/27 08:42:57;;;;;;;4.93;2.10;;;;;;;;;;5042988;28;20446;-74
2023/10/27 08:45:27;;;;;;;3.88;1.98;;;;;;;;;;5036868;28;20526;-74
2023/10/27 08:48:00;;;;;;;2.15;1.95;;;;;;;;;;5041692;28;20433;-74
2023/10/27 08:50:29;;;;;;;2.75;2.15;;;;;;;;;;5043122;28;20429;-74
2023/10/27 08:52:59;;;;;;;2.70;1.90;;;;;;;;;;5039401;28;20448;-74
2023/10/27 08:55:27;;;;;;;1.90;1.63;;;;;;;;;;5034526;28;20449;-74
2023/10/27 08:58:00;;;;;;;1.98;1.70;;;;;;;;;;5037228;28;20952;-74
2023/10/27 09:00:28;;;;;;;2.25;1.80;;;;;;;;;;5039529;28;20448;-73
2023/10/27 09:02:57;;;;;;;2.30;1.42;;;;;;;;;;5042171;28;20421;-74
2023/10/27 09:05:24;;;;;;;1.70;1.33;;;;;;;;;;5044829;28;20433;-74
2023/10/27 09:07:52;;;;;;;1.63;1.40;;;;;;;;;;5042006;28;20434;-74
2023/10/27 09:10:19;;;;;;;1.23;1.13;;;;;;;;;;5047482;28;20459;-74
2023/10/27 09:12:47;;;;;;;1.30;1.20;;;;;;;;;;5040481;28;20817;-75
2023/10/27 09:15:15;;;;;;;2.10;1.20;;;;;;;;;;5035491;28;20580;-75
2023/10/27 09:17:51;;;;;;;2.42;1.05;;;;;;;;;;5039691;28;20437;-75
2023/10/27 09:20:20;;;;;;;1.30;1.10;;;;;;;;;;5040498;28;20437;-74
2023/10/27 09:22:58;;;;;;;1.23;1.13;;;;;;;;;;5045197;28;20502;-74
2023/10/27 09:25:28;;;;;;;1.20;1.10;;;;;;;;;;5040878;28;20440;-74
2023/10/27 09:27:58;;;;;;;1.38;1.00;;;;;;;;;;5038162;28;20506;-74
2023/10/27 09:30:37;;;;;;;1.50;0.73;;;;;;;;;;5044723;28;20440;-76
2023/10/27 09:33:14;;;;;;;0.55;0.55;;;;;;;;;;5045291;28;20435;-73
2023/10/27 09:35:41;;;;;;;0.60;0.60;;;;;;;;;;5047606;28;20966;-74
2023/10/27 09:38:13;;;;;;;0.70;0.70;;;;;;;;;;5046238;28;20433;-74
2023/10/27 09:40:41;;;;;;;0.90;0.52;;;;;;;;;;5074467;28;20433;-74
2023/10/27 09:43:09;;;;;;;0.90;0.70;;;;;;;;;;5042063;28;20981;-75
2023/10/27 09:45:38;;;;;;;0.70;0.70;;;;;;;;;;5036384;28;21117;-73
2023/10/27 09:48:07;;;;;;;0.50;0.50;;;;;;;;;;5042205;28;20425;-74
2023/10/27 09:50:38;;;;;;;0.70;0.70;;;;;;;;;;5042650;28;20437;-74
2023/10/27 09:53:06;;;;;;;0.60;0.52;;;;;;;;;;5041095;28;20469;-74
2023/10/27 09:55:33;;;;;;;0.82;0.50;;;;;;;;;;5036748;28;20440;-74
2023/10/27 09:58:01;;;;;;;0.40;0.40;;;;;;;;;;5041954;28;20512;-73
2023/10/27 10:00:30;;;;;;;0.50;0.50;;;;;;;;;;5042149;28;20457;-75
2023/10/27 10:02:57;;;;;;;0.70;0.55;;;;;;;;;;5042924;28;20436;-74
2023/10/27 10:05:25;;;;;;;0.70;0.57;;;;;;;;;;5045102;28;20435;-73
2023/10/27 10:07:52;;;;;;;0.45;0.40;;;;;;;;;;5037825;28;20425;-75
2023/10/27 10:10:21;;;;;;;0.45;0.45;;;;;;;;;;5045275;28;20441;-74
2023/10/27 10:13:03;;;;;;;2.67;0.70;;;;;;;;;;5044422;28;20825;-73
2023/10/27 10:15:32;;;;;;;2.00;0.70;;;;;;;;;;5039634;28;20453;-73
2023/10/27 10:18:00;;;;;;;1.10;0.50;;;;;;;;;;5039327;28;20421;-72
2023/10/27 10:20:44;;;;;;;0.45;0.45;;;;;;;;;;5039538;28;20458;-73
2023/10/27 10:23:12;;;;;;;0.50;0.50;;;;;;;;;;5037724;28;20490;-72
2023/10/27 10:25:59;;;;;;;0.50;0.50;;;;;;;;;;5040775;28;20431;-72
2023/10/27 10:28:28;;;;;;;0.38;0.38;;;;;;;;;;5035394;28;20442;-73
2023/10/27 10:31:11;;;;;;;0.30;0.30;;;;;;;;;;5039990;28;20436;-72
2023/10/27 10:33:38;;;;;;;0.60;0.40;;;;;;;;;;5047567;28;20492;-71
2023/10/27 10:36:18;;;;;;;0.40;0.40;;;;;;;;;;5041595;28;20520;-72
2023/10/27 10:38:56;;;;;;;1.35;0.50;;;;;;;;;;5041097;28;20433;-71
2023/10/27 10:41:43;;;;;;;0.50;0.45;;;;;;;;;;5043606;28;20432;-71
2023/10/27 10:44:29;;;;;;;0.75;0.40;;;;;;;;;;5046593;28;20444;-71
2023/10/27 10:46:56;;;;;;;1.10;0.50;;;;;;;;;;5038562;28;21074;-70
2023/10/27 10:49:27;;;;;;;0.35;0.30;;;;;;;;;;5038271;28;20917;-70
2023/10/27 10:51:58;;;;;;;0.40;0.40;;;;;;;;;;5040410;28;20453;-70
2023/10/27 10:54:32;;;;;;;0.90;0.30;;;;;;;;;;5044401;28;20460;-70
2023/10/27 10:57:04;;;;;;;0.80;0.60;;;;;;;;;;5039459;28;20552;-72
2023/10/27 10:59:31;;;;;;;3.88;0.50;;;;;;;;;;5040434;28;20460;-70
2023/10/27 11:02:00;;;;;;;0.65;0.40;;;;;;;;;;5037270;28;20438;-70
2023/10/27 11:04:30;;;;;;;0.90;0.40;;;;;;;;;;5041067;28;20506;-70
2023/10/27 11:07:08;;;;;;;0.47;0.40;;;;;;;;;;5039928;28;20500;-70
2023/10/27 11:09:35;;;;;;;1.80;0.47;;;;;;;;;;5044468;28;20487;-71
2023/10/27 11:12:05;;;;;;;2.10;0.50;;;;;;;;;;5043840;28;20433;-70
2023/10/27 11:14:46;;;;;;;4.85;0.75;;;;;;;;;;5038474;28;20429;-71
2023/10/27 11:17:13;;;;;;;1.98;0.60;;;;;;;;;;5039732;28;20768;-72
2023/10/27 11:19:53;;;;;;;1.40;0.70;;;;;;;;;;5041494;28;20437;-71
2023/10/27 11:22:25;;;;;;;1.88;0.60;;;;;;;;;;5045416;28;20451;-73
2023/10/27 11:24:55;;;;;;;3.83;0.68;;;;;;;;;;5038099;28;20471;-70
2023/10/27 11:27:27;;;;;;;1.63;0.60;;;;;;;;;;5039774;28;20437;-71
2023/10/27 11:30:00;;;;;;;1.50;0.70;;;;;;;;;;5031431;28;20528;-71
2023/10/27 11:32:30;;;;;;;1.40;0.75;;;;;;;;;;5033630;28;20438;-71
2023/10/27 11:34:59;;;;;;;1.83;0.55;;;;;;;;;;5039314;28;20437;-72
2023/10/27 11:37:29;;;;;;;1.50;0.60;;;;;;;;;;5038556;28;20436;-71
2023/10/27 11:39:57;;;;;;;1.77;0.73;;;;;;;;;;5048150;28;20472;-71
2023/10/27 11:42:27;;;;;;;2.15;0.70;;;;;;;;;;5043750;28;20523;-71
2023/10/27 11:44:57;;;;;;;1.75;0.82;;;;;;;;;;5042810;28;20425;-72
2023/10/27 11:47:25;;;;;;;2.35;0.60;;;;;;;;;;5036856;28;21323;-72
2023/10/27 11:49:52;;;;;;;1.90;0.77;;;;;;;;;;5032491;28;20480;-71
2023/10/27 11:52:21;;;;;;;2.40;0.80;;;;;;;;;;5037133;28;21050;-61
2023/10/27 11:54:48;;;;;;;1.95;0.93;;;;;;;;;;5031951;28;20517;-62
2023/10/27 11:57:15;;;;;;;2.42;0.70;;;;;;;;;;5031110;28;20436;-61
2023/10/27 11:59:45;;;;;;;2.47;0.73;;;;;;;;;;5041821;28;20437;-62
2023/10/27 12:02:13;;;;;;;2.50;0.80;;;;;;;;;;5039544;28;20934;-61
2023/10/27 12:04:40;;;;;;;1.15;0.75;;;;;;;;;;5037142;28;20524;-61
2023/10/27 12:07:11;;;;;;;1.85;0.90;;;;;;;;;;5040244;28;20908;-61
2023/10/27 12:09:38;;;;;;;2.42;0.73;;;;;;;;;;5029581;28;20453;-62
2023/10/27 12:12:05;;;;;;;3.03;0.70;;;;;;;;;;5037469;28;20784;-62
2023/10/27 12:14:33;;;;;;;2.67;0.80;;;;;;;;;;5037743;28;20437;-62
2023/10/27 12:17:00;;;;;;;1.52;0.98;;;;;;;;;;5045506;28;20564;-62
2023/10/27 12:19:27;;;;;;;2.08;1.13;;;;;;;;;;5040768;28;20506;-62
2023/10/27 12:21:55;;;;;;;2.88;0.77;;;;;;;;;;5040872;28;20436;-62
2023/10/27 12:24:23;;;;;;;2.60;0.70;;;;;;;;;;5042127;28;20971;-62
2023/10/27 12:26:51;;;;;;;2.95;0.95;;;;;;;;;;5035500;28;20896;-62
2023/10/27 12:29:19;;;;;;;2.83;0.90;;;;;;;;;;5035372;28;20538;-61
2023/10/27 12:31:46;;;;;;;1.77;0.70;;;;;;;;;;5034091;28;20787;-61
2023/10/27 12:34:14;;;;;;;2.80;0.60;;;;;;;;;;5040553;28;20443;-62
2023/10/27 12:36:41;;;;;;;2.33;0.80;;;;;;;;;;5041369;28;20441;-62
2023/10/27 12:39:11;;;;;;;1.88;0.70;;;;;;;;;;5044606;28;20437;-72
2023/10/27 12:41:45;;;;;;;1.95;0.70;;;;;;;;;;5035127;28;20948;-72
2023/10/27 12:44:12;;;;;;;3.20;0.93;;;;;;;;;;5043347;28;20457;-72
2023/10/27 12:46:39;;;;;;;1.85;0.77;;;;;;;;;;5039545;28;20437;-72
2023/10/27 12:49:07;;;;;;;1.58;0.70;;;;;;;;;;5036427;28;20444;-71
2023/10/27 12:51:35;;;;;;;4.13;0.75;;;;;;;;;;5040263;28;20501;-64
2023/10/27 12:54:02;;;;;;;2.28;0.80;;;;;;;;;;5038311;28;20998;-64
2023/10/27 12:56:30;;;;;;;3.58;1.00;;;;;;;;;;5039047;28;20512;-64
2023/10/27 12:58:57;;;;;;;2.03;0.80;;;;;;;;;;5043378;28;20433;-65
2023/10/27 13:01:27;;;;;;;1.87;0.80;;;;;;;;;;5036771;28;20435;-65
2023/10/27 13:03:55;;;;;;;4.15;0.93;;;;;;;;;;5038454;28;20495;-65
2023/10/27 13:06:22;;;;;;;2.07;0.93;;;;;;;;;;5037445;28;20515;-63
2023/10/27 13:08:49;;;;;;;3.97;0.80;;;;;;;;;;5035974;28;20534;-66
2023/10/27 13:11:18;;;;;;;2.93;1.00;;;;;;;;;;5031144;28;20461;-65
2023/10/27 13:13:45;;;;;;;0.75;0.70;;;;;;;;;;5035475;28;20436;-67
2023/10/27 13:16:13;;;;;;;4.75;0.80;;;;;;;;;;5036236;28;20473;-66
2023/10/27 13:18:40;;;;;;;1.92;0.60;;;;;;;;;;5034900;28;20990;-66
2023/10/27 13:21:14;;;;;;;1.52;0.80;;;;;;;;;;5041263;28;20429;-66
2023/10/27 13:23:42;;;;;;;2.00;0.80;;;;;;;;;;5034486;28;21218;-66
2023/10/27 13:26:09;;;;;;;2.38;1.00;;;;;;;;;;5038265;28;20441;-67
2023/10/27 13:28:37;;;;;;;2.65;0.88;;;;;;;;;;5035128;28;20539;-68
2023/10/27 13:31:07;;;;;;;2.05;0.70;;;;;;;;;;5034696;28;20427;-67
2023/10/27 13:33:35;;;;;;;1.60;0.70;;;;;;;;;;5038562;28;20431;-66
2023/10/27 13:36:09;;;;;;;2.35;0.70;;;;;;;;;;5038857;28;20425;-67
2023/10/27 13:38:37;;;;;;;3.23;0.57;;;;;;;;;;5035241;28;20437;-67
2023/10/27 13:41:04;;;;;;;1.63;0.63;;;;;;;;;;5036519;28;20913;-66
2023/10/27 13:43:31;;;;;;;2.88;0.70;;;;;;;;;;5040941;28;20985;-67
2023/10/27 13:46:01;;;;;;;1.65;0.70;;;;;;;;;;5039248;28;20514;-67
2023/10/27 13:48:29;;;;;;;2.22;0.82;;;;;;;;;;5036195;28;20823;-66
2023/10/27 13:50:56;;;;;;;1.17;0.60;;;;;;;;;;5037930;28;20431;-67
2023/10/27 13:53:23;;;;;;;2.95;0.80;;;;;;;;;;5042067;28;20425;-66
2023/10/27 13:55:51;;;;;;;1.15;0.57;;;;;;;;;;5040647;28;20943;-66
2023/10/27 13:58:18;;;;;;;1.60;0.73;;;;;;;;;;5040865;28;20973;-68
2023/10/27 14:00:46;;;;;;;1.00;0.57;;;;;;;;;;5037489;28;20427;-71
2023/10/27 14:03:13;;;;;;;1.10;0.70;;;;;;;;;;5042104;28;20441;-71
2023/10/27 14:05:41;;;;;;;2.00;0.50;;;;;;;;;;5041702;28;20459;-74
2023/10/27 14:08:08;;;;;;;1.00;0.60;;;;;;;;;;5043222;28;20871;-73
2023/10/27 14:10:35;;;;;;;2.03;0.70;;;;;;;;;;5044400;28;21294;-72
2023/10/27 14:13:03;;;;;;;0.93;0.63;;;;;;;;;;5036664;28;20433;-71
2023/10/27 14:15:32;;;;;;;1.70;0.70;;;;;;;;;;5041593;28;20532;-74
2023/10/27 14:18:04;;;;;;;1.58;0.60;;;;;;;;;;5037427;28;21233;-72
2023/10/27 14:20:34;;;;;;;0.85;0.70;;;;;;;;;;5041017;28;20911;-71
2023/10/27 14:23:03;;;;;;;1.45;0.88;;;;;;;;;;5036375;28;20522;-72
2023/10/27 14:25:35;;;;;;;3.38;0.70;;;;;;;;;;5050439;28;21059;-71
2023/10/27 14:28:09;;;;;;;1.73;0.60;;;;;;;;;;5040910;28;20429;-72
2023/10/27 14:30:37;;;;;;;1.88;0.65;;;;;;;;;;5042176;28;21190;-73
2023/10/27 14:33:08;;;;;;;1.42;0.70;;;;;;;;;;5042989;28;20433;-74
2023/10/27 14:35:36;;;;;;;1.38;0.60;;;;;;;;;;5045991;28;20495;-72
2023/10/27 14:38:03;;;;;;;2.05;0.70;;;;;;;;;;5045831;28;22838;-73
2023/10/27 14:40:30;;;;;;;1.42;0.68;;;;;;;;;;5045549;28;20444;-73
2023/10/27 14:42:58;;;;;;;2.20;0.73;;;;;;;;;;5036600;28;20979;-73
2023/10/27 14:45:25;;;;;;;2.00;0.53;;;;;;;;;;5034106;28;20434;-72
2023/10/27 14:47:56;;;;;;;0.60;0.60;;;;;;;;;;5039055;28;20512;-73